createdAt,value
2022-08-29T00:01:30.975Z,24.78
2022-08-29T00:04:17.039Z,24.77
2022-08-29T00:07:03.085Z,24.83
2022-08-29T00:09:49.365Z,24.81
2022-08-29T00:12:35.810Z,24.68
2022-08-29T00:15:22.398Z,24.73
2022-08-29T00:18:08.883Z,24.71
2022-08-29T00:20:55.261Z,24.57
2022-08-29T00:23:41.399Z,24.51
2022-08-29T00:26:27.543Z,24.51
2022-08-29T00:29:17.641Z,24.53
2022-08-29T00:32:04.183Z,24.43
2022-08-29T00:34:50.543Z,24.38
2022-08-29T00:37:37.369Z,24.37
2022-08-29T00:40:36.958Z,24.31
2022-08-29T00:43:29.055Z,24.39
2022-08-29T00:46:43.502Z,24.30
2022-08-29T00:49:42.077Z,24.27
2022-08-29T00:52:39.423Z,24.25
2022-08-29T00:55:29.361Z,24.26
2022-08-29T00:58:25.740Z,24.18
2022-08-29T01:01:11.760Z,24.19
2022-08-29T01:03:58.449Z,24.17
2022-08-29T01:06:45.054Z,24.16
2022-08-29T01:09:31.417Z,24.19
2022-08-29T01:12:17.396Z,24.15
2022-08-29T01:15:07.712Z,24.14
2022-08-29T01:17:55.016Z,24.06
2022-08-29T01:20:57.708Z,23.90
2022-08-29T01:23:46.531Z,23.90
2022-08-29T01:26:33.622Z,23.97
2022-08-29T01:29:19.373Z,23.85
2022-08-29T01:32:06.025Z,23.94
2022-08-29T01:34:53.156Z,23.93
2022-08-29T01:37:43.410Z,23.87
2022-08-29T01:40:30.240Z,23.79
2022-08-29T01:43:16.271Z,23.77
2022-08-29T01:46:02.366Z,23.61
2022-08-29T01:48:48.528Z,23.67
2022-08-29T01:51:35.319Z,23.74
2022-08-29T01:54:21.436Z,23.64
2022-08-29T01:57:12.287Z,23.60
2022-08-29T01:59:59.682Z,23.68
2022-08-29T02:02:46.081Z,23.66
2022-08-29T02:05:32.174Z,23.67
2022-08-29T02:08:20.186Z,23.65
2022-08-29T02:11:10.083Z,23.63
2022-08-29T02:13:59.394Z,23.62
2022-08-29T02:16:45.318Z,23.58
2022-08-29T02:19:35.678Z,23.48
2022-08-29T02:22:21.677Z,23.52
2022-08-29T02:25:29.610Z,23.54
2022-08-29T02:28:18.417Z,23.40
2022-08-29T02:31:05.661Z,23.48
2022-08-29T02:33:52.664Z,23.47
2022-08-29T02:36:39.187Z,23.46
2022-08-29T02:39:27.829Z,23.33
2022-08-29T02:42:13.674Z,23.40
2022-08-29T02:45:01.250Z,23.41
2022-08-29T02:47:47.741Z,23.37
2022-08-29T02:50:34.378Z,23.15
2022-08-29T02:53:24.381Z,23.38
2022-08-29T02:56:10.237Z,23.32
2022-08-29T02:59:01.289Z,23.29
2022-08-29T03:01:47.603Z,23.12
2022-08-29T03:04:33.687Z,23.16
2022-08-29T03:07:19.743Z,23.21
2022-08-29T03:10:07.519Z,23.20
2022-08-29T03:12:53.318Z,23.20
2022-08-29T03:15:40.360Z,23.17
2022-08-29T03:18:26.452Z,23.13
2022-08-29T03:21:17.974Z,23.18
2022-08-29T03:24:04.249Z,23.24
2022-08-29T03:26:56.295Z,23.12
2022-08-29T03:29:43.241Z,23.24
2022-08-29T03:32:29.743Z,23.27
2022-08-29T03:35:18.116Z,23.17
2022-08-29T03:38:04.415Z,23.30
2022-08-29T03:40:50.264Z,23.17
2022-08-29T03:43:36.134Z,23.20
2022-08-29T03:46:25.767Z,23.29
2022-08-29T03:49:12.031Z,23.23
2022-08-29T03:51:58.488Z,23.29
2022-08-29T03:54:44.443Z,23.24
2022-08-29T03:57:33.189Z,23.33
2022-08-29T04:00:20.061Z,23.41
2022-08-29T04:03:06.381Z,23.40
2022-08-29T04:05:53.153Z,23.37
2022-08-29T04:08:43.128Z,23.35
2022-08-29T04:11:29.909Z,23.20
2022-08-29T04:14:15.724Z,23.31
2022-08-29T04:17:01.829Z,23.41
2022-08-29T04:19:47.925Z,23.42
2022-08-29T04:22:36.085Z,23.43
2022-08-29T04:25:25.082Z,23.43
2022-08-29T04:28:12.696Z,23.39
2022-08-29T04:30:58.636Z,23.19
2022-08-29T04:33:44.684Z,23.40
2022-08-29T04:36:30.567Z,23.44
2022-08-29T04:39:16.690Z,23.43
2022-08-29T04:42:02.663Z,23.39
2022-08-29T04:44:48.717Z,23.41
2022-08-29T04:47:35.785Z,23.32
2022-08-29T04:50:23.125Z,23.43
2022-08-29T04:53:14.018Z,23.40
2022-08-29T04:56:02.421Z,23.40
2022-08-29T04:58:50.691Z,23.42
2022-08-29T05:01:36.822Z,23.33
2022-08-29T05:04:22.866Z,23.31
2022-08-29T05:07:09.209Z,23.32
2022-08-29T05:10:06.785Z,23.25
2022-08-29T05:12:52.837Z,23.34
2022-08-29T05:15:39.346Z,23.27
2022-08-29T05:18:25.530Z,23.39
2022-08-29T05:21:12.436Z,23.40
2022-08-29T05:23:59.012Z,23.41
2022-08-29T05:26:45.643Z,23.40
2022-08-29T05:29:31.697Z,23.40
2022-08-29T05:32:19.653Z,23.43
2022-08-29T05:35:06.082Z,23.42
2022-08-29T05:37:52.211Z,23.44
2022-08-29T05:40:38.560Z,23.34
2022-08-29T05:43:24.874Z,23.35
2022-08-29T05:46:11.435Z,23.36
2022-08-29T05:48:58.385Z,23.48
2022-08-29T05:51:44.658Z,23.50
2022-08-29T05:54:33.492Z,23.47
2022-08-29T05:57:21.447Z,23.43
2022-08-29T06:00:09.499Z,23.60
2022-08-29T06:02:58.708Z,23.58
2022-08-29T06:05:51.102Z,23.65
2022-08-29T06:08:36.985Z,23.74
2022-08-29T06:11:26.418Z,23.81
2022-08-29T06:14:14.166Z,23.87
2022-08-29T06:17:00.692Z,23.85
2022-08-29T06:19:50.586Z,23.92
2022-08-29T06:22:40.476Z,24.01
2022-08-29T06:25:40.066Z,23.96
2022-08-29T06:28:31.386Z,24.03
2022-08-29T06:31:29.329Z,24.05
2022-08-29T06:34:15.416Z,24.16
2022-08-29T06:37:01.408Z,24.25
2022-08-29T13:50:22.758Z,26.60
2022-08-29T13:53:09.185Z,26.73
2022-08-29T13:55:55.274Z,26.75
2022-08-29T13:58:41.147Z,26.42
2022-08-29T14:01:30.830Z,26.26
2022-08-29T14:04:38.871Z,22.87
2022-08-29T14:07:28.895Z,24.77
2022-08-29T14:10:17.298Z,25.39
2022-08-29T14:13:03.735Z,25.43
2022-08-29T14:15:49.895Z,25.53
2022-08-29T14:18:36.722Z,25.52
2022-08-29T14:21:22.493Z,25.54
2022-08-29T14:24:08.487Z,25.39
2022-08-29T14:26:55.680Z,25.32
2022-08-29T14:29:48.989Z,25.27
2022-08-29T14:32:35.423Z,25.16
2022-08-29T14:35:26.423Z,25.07
2022-08-29T14:38:18.056Z,24.98
2022-08-29T14:41:04.506Z,24.92
2022-08-29T14:43:50.752Z,24.88
2022-08-29T14:46:36.893Z,24.80
2022-08-29T14:49:23.930Z,24.30
2022-08-29T14:52:14.875Z,23.93
2022-08-29T14:55:01.058Z,24.07
2022-08-29T14:57:48.201Z,23.78
2022-08-29T15:00:34.626Z,23.83
2022-08-29T15:03:20.748Z,23.62
2022-08-29T15:06:06.958Z,23.71
2022-08-29T15:08:53.381Z,23.88
2022-08-29T15:11:39.482Z,23.92
2022-08-29T15:14:26.941Z,23.95
2022-08-29T15:17:13.634Z,23.97
2022-08-29T15:23:07.007Z,24.01
2022-08-29T15:25:53.663Z,23.96
2022-08-29T15:28:39.950Z,23.81
2022-08-29T15:31:26.148Z,23.80
2022-08-29T15:34:12.063Z,23.73
2022-08-29T15:36:59.184Z,23.75
2022-08-29T15:39:45.168Z,23.67
2022-08-29T15:42:33.249Z,23.69
2022-08-29T15:45:22.593Z,23.66
2022-08-29T15:48:11.668Z,23.58
2022-08-29T15:50:57.395Z,22.05
2022-08-29T15:53:43.296Z,22.06
2022-08-29T15:56:35.756Z,20.27
2022-08-29T15:59:41.206Z,21.98
2022-08-29T17:13:22.744Z,21.36
2022-08-29T17:16:10.093Z,21.61
2022-08-29T17:18:55.978Z,21.87
2022-08-29T17:21:42.813Z,21.96
2022-08-29T17:24:29.040Z,22.19
2022-08-29T17:27:20.709Z,22.29
2022-08-29T17:30:07.887Z,22.46
2022-08-29T17:32:53.895Z,22.54
2022-08-29T17:35:39.856Z,22.64
2022-08-29T17:38:26.750Z,22.72
2022-08-29T17:41:17.364Z,22.71
2022-08-29T17:44:05.707Z,22.79
2022-08-29T17:46:52.085Z,22.81
2022-08-29T17:49:38.310Z,22.85
2022-08-29T17:52:24.598Z,22.88
2022-08-29T17:55:10.933Z,22.91
2022-08-29T17:57:58.014Z,22.95
2022-08-29T18:00:44.277Z,22.91
2022-08-29T18:03:30.122Z,22.92
2022-08-29T18:06:16.174Z,22.91
2022-08-29T18:09:02.513Z,22.95
2022-08-29T18:11:50.430Z,22.98
2022-08-29T18:14:44.788Z,22.80
2022-08-29T18:17:32.254Z,22.89
2022-08-29T18:20:21.607Z,22.92
2022-08-29T18:23:08.378Z,22.85
2022-08-29T18:25:54.150Z,22.84
2022-08-29T18:28:41.116Z,22.77
2022-08-29T18:31:29.159Z,22.86
2022-08-29T18:34:15.722Z,22.86
2022-08-29T18:37:02.189Z,22.79
2022-08-29T18:39:48.142Z,22.74
2022-08-29T18:42:41.707Z,22.74
2022-08-29T18:45:28.536Z,22.74
2022-08-29T18:48:14.917Z,22.75
2022-08-29T18:51:01.335Z,22.78
2022-08-29T18:53:48.073Z,22.73
2022-08-29T18:56:34.161Z,22.67
2022-08-29T18:59:20.615Z,22.73
2022-08-29T19:02:11.829Z,22.78
2022-08-29T19:04:58.175Z,22.78
2022-08-29T19:07:46.355Z,22.78
2022-08-29T19:10:32.416Z,22.28
2022-08-29T19:13:18.745Z,22.47
2022-08-29T19:16:07.373Z,22.36
2022-08-29T19:18:54.085Z,22.48
2022-08-29T19:21:41.180Z,22.53
2022-08-29T19:24:28.457Z,22.56
2022-08-29T19:27:39.745Z,22.58
2022-08-29T19:30:21.855Z,22.49
2022-08-29T19:33:09.805Z,22.44
2022-08-29T19:35:56.283Z,22.49
2022-08-29T19:38:42.612Z,22.64
2022-08-29T19:41:28.767Z,22.68
2022-08-29T19:44:14.777Z,22.62
2022-08-29T19:47:00.826Z,22.63
2022-08-29T19:49:49.097Z,22.75
2022-08-29T19:52:36.050Z,22.66
2022-08-29T19:55:23.075Z,22.63
2022-08-29T19:58:10.821Z,22.80
2022-08-29T20:00:57.701Z,22.79
2022-08-29T20:03:43.531Z,22.75
2022-08-29T20:06:29.483Z,22.78
2022-08-29T20:09:15.707Z,22.81
2022-08-29T20:12:03.179Z,22.56
2022-08-29T20:14:52.392Z,22.71
2022-08-29T20:17:39.444Z,22.74
2022-08-29T20:20:31.502Z,22.73
2022-08-29T20:23:17.671Z,22.72
2022-08-29T20:26:04.113Z,22.69
2022-08-29T20:28:52.170Z,22.70
2022-08-29T20:31:38.316Z,22.80
2022-08-29T20:34:28.421Z,22.80
2022-08-29T20:37:16.254Z,22.83
2022-08-29T20:40:02.757Z,22.80
2022-08-29T20:42:49.621Z,22.87
2022-08-29T20:45:41.229Z,22.81
2022-08-29T20:48:31.320Z,22.72
2022-08-29T20:51:17.738Z,22.78
2022-08-29T20:54:04.369Z,22.68
2022-08-29T20:56:50.621Z,22.70
2022-08-29T20:59:39.434Z,22.64
2022-08-29T21:02:43.777Z,22.74
2022-08-29T21:05:41.124Z,22.67
2022-08-29T21:08:27.935Z,22.68
2022-08-29T21:11:15.666Z,22.74
2022-08-29T21:14:02.026Z,22.61
2022-08-29T21:16:49.685Z,22.69
2022-08-29T21:19:35.731Z,22.69
2022-08-29T21:22:25.018Z,22.25
2022-08-29T21:25:11.733Z,22.49
2022-08-29T21:27:57.738Z,22.58
2022-08-29T21:30:46.287Z,22.22
2022-08-29T21:33:33.532Z,22.43
2022-08-29T21:36:22.751Z,22.42
2022-08-29T21:39:10.284Z,22.42
2022-08-29T21:41:57.235Z,22.50
2022-08-29T21:44:43.450Z,22.42
2022-08-29T21:47:32.426Z,22.44
2022-08-29T21:50:18.892Z,22.46
2022-08-29T21:53:05.562Z,22.49
2022-08-29T21:55:51.482Z,22.44
2022-08-29T21:58:37.228Z,22.43
2022-08-29T22:01:27.868Z,22.34
2022-08-29T22:04:19.232Z,22.44
2022-08-29T22:07:16.155Z,22.39
2022-08-29T22:10:02.776Z,22.42
2022-08-29T22:12:48.787Z,22.42
2022-08-29T22:15:53.675Z,22.38
2022-08-29T22:18:39.569Z,22.22
2022-08-29T22:21:26.363Z,22.36
2022-08-29T22:24:14.225Z,22.36
2022-08-29T22:27:00.346Z,22.29
2022-08-29T22:29:46.232Z,22.22
2022-08-29T22:32:35.517Z,22.27
2022-08-29T22:35:22.292Z,22.30
2022-08-29T22:38:08.170Z,22.29
2022-08-29T22:40:54.129Z,22.31
2022-08-29T22:43:40.328Z,22.33
2022-08-29T22:46:27.090Z,22.29
2022-08-29T22:49:13.151Z,22.22
2022-08-29T22:51:59.147Z,22.30
2022-08-29T22:54:45.280Z,22.24
2022-08-29T22:57:31.417Z,22.30
2022-08-29T23:00:21.761Z,22.31
2022-08-29T23:03:08.044Z,22.16
2022-08-29T23:05:54.191Z,22.23
2022-08-29T23:08:40.327Z,22.17
2022-08-29T23:11:28.026Z,22.11
2022-08-29T23:14:14.390Z,22.10
2022-08-29T23:17:01.003Z,22.03
2022-08-29T23:19:46.921Z,22.09
2022-08-29T23:22:35.871Z,22.08
2022-08-29T23:25:21.799Z,22.07
2022-08-29T23:28:07.857Z,22.10
2022-08-29T23:30:53.892Z,22.08
2022-08-29T23:33:39.626Z,21.81
2022-08-29T23:36:25.595Z,21.65
2022-08-29T23:39:11.696Z,21.81
2022-08-29T23:41:57.741Z,21.85
2022-08-29T23:44:43.584Z,21.88
2022-08-29T23:47:29.411Z,21.82
2022-08-29T23:50:15.824Z,21.88
2022-08-29T23:53:01.780Z,21.86
2022-08-29T23:55:48.125Z,21.82
2022-08-29T23:58:33.962Z,21.81
